createdAt,value
2018-09-15T00:00:31.295Z,12.50
2018-09-15T00:02:59.493Z,12.40
2018-09-15T00:05:27.696Z,12.40
2018-09-15T00:07:55.902Z,12.40
2018-09-15T00:10:24.139Z,12.40
2018-09-15T00:12:52.359Z,12.40
2018-09-15T00:15:20.691Z,12.50
2018-09-15T00:17:49.332Z,12.40
2018-09-15T00:20:17.564Z,12.50
2018-09-15T00:22:45.750Z,12.40
2018-09-15T00:25:13.964Z,12.40
2018-09-15T00:27:42.174Z,12.40
2018-09-15T00:30:10.369Z,12.40
2018-09-15T00:32:38.559Z,12.40
2018-09-15T00:35:07.027Z,12.30
2018-09-15T00:37:35.218Z,12.30
2018-09-15T00:40:03.456Z,12.20
2018-09-15T00:42:31.631Z,12.20
2018-09-15T00:44:59.945Z,12.10
2018-09-15T00:47:28.086Z,12.10
2018-09-15T00:49:56.310Z,12.00
2018-09-15T00:52:24.582Z,12.00
2018-09-15T00:54:53.701Z,12.00
2018-09-15T00:57:21.975Z,11.90
2018-09-15T00:59:50.122Z,11.90
2018-09-15T01:02:18.378Z,11.80
2018-09-15T01:04:46.624Z,11.80
2018-09-15T01:07:14.805Z,11.80
2018-09-15T01:09:43.017Z,11.70
2018-09-15T01:12:11.181Z,11.70
2018-09-15T01:14:39.381Z,11.70
2018-09-15T01:17:07.668Z,11.70
2018-09-15T01:19:35.922Z,11.70
2018-09-15T01:22:04.193Z,11.80
2018-09-15T01:24:32.426Z,11.80
2018-09-15T01:27:00.865Z,11.90
2018-09-15T01:29:29.479Z,12.00
2018-09-15T01:31:57.873Z,12.10
2018-09-15T01:35:58.138Z,12.20
2018-09-15T01:38:26.350Z,12.20
2018-09-15T01:40:54.508Z,12.20
2018-09-15T01:43:23.927Z,12.30
2018-09-15T01:45:52.136Z,12.30
2018-09-15T01:48:20.345Z,12.30
2018-09-15T01:50:48.566Z,12.40
2018-09-15T01:53:16.817Z,12.40
2018-09-15T02:00:38.724Z,12.50
2018-09-15T02:03:07.034Z,12.70
2018-09-15T02:05:35.344Z,12.70
2018-09-15T02:08:03.537Z,12.70
2018-09-15T02:10:31.825Z,12.70
2018-09-15T02:17:53.209Z,12.50
2018-09-15T02:20:21.548Z,12.40
2018-09-15T02:22:49.805Z,12.40
2018-09-15T02:25:17.894Z,12.40
2018-09-15T02:27:46.160Z,12.40
2018-09-15T02:35:07.211Z,12.30
2018-09-15T02:37:35.347Z,12.30
2018-09-15T02:40:03.542Z,12.30
2018-09-15T02:42:31.725Z,12.40
2018-09-15T02:44:59.937Z,12.40
2018-09-15T02:47:28.116Z,12.50
2018-09-15T02:49:56.277Z,12.50
2018-09-15T02:52:24.489Z,12.50
2018-09-15T02:54:52.829Z,12.60
2018-09-15T02:57:20.859Z,12.50
2018-09-15T02:59:49.574Z,12.50
2018-09-15T03:02:17.737Z,12.40
2018-09-15T03:04:45.899Z,12.40
2018-09-15T03:07:14.053Z,12.30
2018-09-15T03:09:42.213Z,12.40
2018-09-15T03:12:10.370Z,12.50
2018-09-15T03:14:38.568Z,12.40
2018-09-15T03:17:06.968Z,12.40
2018-09-15T03:19:35.193Z,12.30
2018-09-15T03:22:03.461Z,12.30
2018-09-15T03:24:31.645Z,12.30
2018-09-15T03:26:59.829Z,12.40
2018-09-15T03:29:27.995Z,12.40
2018-09-15T03:31:56.328Z,12.50
2018-09-15T03:34:24.618Z,12.50
2018-09-15T03:36:52.854Z,12.40
2018-09-15T03:39:21.027Z,12.40
2018-09-15T03:41:49.202Z,12.30
2018-09-15T03:44:17.373Z,12.30
2018-09-15T03:46:45.563Z,12.40
2018-09-15T03:49:13.841Z,12.40
2018-09-15T03:51:41.986Z,12.50
2018-09-15T03:54:14.372Z,12.40
2018-09-15T03:56:42.530Z,12.40
2018-09-15T03:59:10.709Z,12.30
2018-09-15T04:01:38.892Z,12.30
2018-09-15T04:04:07.076Z,12.30
2018-09-15T04:06:35.392Z,12.30
2018-09-15T04:09:03.694Z,12.30
2018-09-15T04:11:31.864Z,12.30
2018-09-15T04:14:00.003Z,12.30
2018-09-15T04:16:28.162Z,12.30
2018-09-15T04:18:56.309Z,12.30
2018-09-15T04:21:24.479Z,12.20
2018-09-15T04:23:52.699Z,12.20
2018-09-15T04:26:20.885Z,12.10
2018-09-15T04:28:49.084Z,12.10
2018-09-15T04:31:17.273Z,12.00
2018-09-15T04:33:45.586Z,12.00
2018-09-15T04:36:13.863Z,12.10
2018-09-15T04:38:42.138Z,12.10
2018-09-15T04:41:10.617Z,12.10
2018-09-15T04:43:38.807Z,12.10
2018-09-15T04:46:07.058Z,12.00
2018-09-15T04:48:35.215Z,12.00
2018-09-15T04:51:03.420Z,12.00
2018-09-15T04:53:31.626Z,12.00
2018-09-15T04:55:59.864Z,12.00
2018-09-15T04:58:28.051Z,12.00
2018-09-15T05:00:56.207Z,12.00
2018-09-15T05:03:24.392Z,12.10
2018-09-15T05:05:52.528Z,12.10
2018-09-15T05:08:20.804Z,12.00
2018-09-15T05:10:49.183Z,12.00
2018-09-15T05:13:17.387Z,12.00
2018-09-15T05:15:45.992Z,11.90
2018-09-15T05:18:14.170Z,11.90
2018-09-15T05:20:42.390Z,11.90
2018-09-15T05:23:10.575Z,11.90
2018-09-15T05:25:38.758Z,12.00
2018-09-15T05:28:06.904Z,12.00
2018-09-15T05:30:35.150Z,12.10
2018-09-15T05:33:03.343Z,12.20
2018-09-15T05:35:31.595Z,12.20
2018-09-15T05:37:59.731Z,12.20
2018-09-15T05:40:28.026Z,12.20
2018-09-15T05:42:56.298Z,12.30
2018-09-15T05:45:24.485Z,12.30
2018-09-15T05:47:52.917Z,12.30
2018-09-15T05:50:22.463Z,12.30
2018-09-15T05:52:50.893Z,12.40
2018-09-15T05:55:19.326Z,12.50
2018-09-15T05:57:47.539Z,12.50
2018-09-15T06:00:15.725Z,12.60
2018-09-15T06:02:43.867Z,12.70
2018-09-15T06:05:12.069Z,12.80
2018-09-15T06:07:40.220Z,12.90
2018-09-15T06:10:08.432Z,13.00
2018-09-15T06:12:36.707Z,13.10
2018-09-15T06:15:05.069Z,13.20
2018-09-15T06:17:33.257Z,13.20
2018-09-15T06:20:01.469Z,13.30
2018-09-15T06:22:29.662Z,13.40
2018-09-15T06:24:57.851Z,13.50
2018-09-15T06:27:26.190Z,13.50
2018-09-15T06:29:54.348Z,13.60
2018-09-15T06:32:22.489Z,13.70
2018-09-15T06:34:50.639Z,13.80
2018-09-15T06:37:18.800Z,13.80
2018-09-15T06:39:47.012Z,14.00
2018-09-15T06:42:15.237Z,14.00
2018-09-15T06:44:43.573Z,14.20
2018-09-15T06:47:11.739Z,14.30
2018-09-15T06:49:39.917Z,14.30
2018-09-15T06:52:08.149Z,14.50
2018-09-15T06:54:36.596Z,14.60
2018-09-15T06:57:04.731Z,14.70
2018-09-15T06:59:32.969Z,14.70
2018-09-15T07:02:01.171Z,14.70
2018-09-15T07:04:29.396Z,14.80
2018-09-15T07:06:57.606Z,15.00
2018-09-15T07:09:25.840Z,15.00
2018-09-15T07:11:53.993Z,15.00
2018-09-15T07:14:22.139Z,15.10
2018-09-15T07:16:50.402Z,15.20
2018-09-15T07:19:18.610Z,15.20
2018-09-15T07:21:46.776Z,15.30
2018-09-15T07:24:14.941Z,15.40
2018-09-15T07:26:43.138Z,15.40
2018-09-15T07:29:11.322Z,15.60
2018-09-15T07:31:39.511Z,15.70
2018-09-15T07:34:07.747Z,15.90
2018-09-15T07:36:35.962Z,16.30
2018-09-15T07:39:06.257Z,16.60
2018-09-15T07:41:34.464Z,16.90
2018-09-15T07:44:02.671Z,17.10
2018-09-15T07:46:30.939Z,17.10
2018-09-15T07:48:59.188Z,16.90
2018-09-15T07:51:27.635Z,16.80
2018-09-15T07:53:55.939Z,16.80
2018-09-15T07:56:24.156Z,16.80
2018-09-15T07:58:52.429Z,17.00
2018-09-15T08:01:20.564Z,17.10
2018-09-15T08:03:48.918Z,17.20
2018-09-15T08:06:17.425Z,17.30
2018-09-15T08:08:45.924Z,17.60
2018-09-15T08:11:14.384Z,18.20
2018-09-15T08:13:42.888Z,19.20
2018-09-15T08:16:11.138Z,19.80
2018-09-15T08:18:39.434Z,20.60
2018-09-15T08:21:07.683Z,21.10
2018-09-15T08:23:35.994Z,22.10
2018-09-15T08:26:04.337Z,22.80
2018-09-15T08:28:32.585Z,23.80
2018-09-15T08:31:00.929Z,23.90
2018-09-15T08:33:29.155Z,24.20
2018-09-15T08:35:57.296Z,25.30
2018-09-15T08:38:25.640Z,25.00
2018-09-15T08:40:53.851Z,25.70
2018-09-15T08:43:21.992Z,26.40
2018-09-15T08:45:51.616Z,25.80
2018-09-15T08:48:19.832Z,26.10
2018-09-15T08:50:47.995Z,26.20
2018-09-15T08:53:16.213Z,26.60
2018-09-15T08:55:44.506Z,26.20
2018-09-15T08:58:12.821Z,25.90
2018-09-15T09:00:41.026Z,26.50
2018-09-15T09:03:11.333Z,27.00
2018-09-15T09:05:39.580Z,27.90
2018-09-15T09:08:12.387Z,26.70
2018-09-15T09:10:40.699Z,24.90
2018-09-15T09:13:08.996Z,23.50
2018-09-15T09:15:37.378Z,22.20
2018-09-15T09:18:05.609Z,21.20
2018-09-15T09:20:33.885Z,20.70
2018-09-15T09:23:02.066Z,20.40
2018-09-15T09:25:30.248Z,19.90
2018-09-15T09:27:58.443Z,19.50
2018-09-15T09:30:26.616Z,19.40
2018-09-15T09:32:54.807Z,19.00
2018-09-15T09:35:23.134Z,19.00
2018-09-15T09:37:51.399Z,18.90
2018-09-15T09:40:20.328Z,18.70
2018-09-15T09:42:48.520Z,18.70
2018-09-15T09:45:16.818Z,19.10
2018-09-15T09:47:45.046Z,19.30
2018-09-15T09:50:13.252Z,19.40
2018-09-15T09:52:41.457Z,20.10
2018-09-15T09:55:09.654Z,22.30
2018-09-15T09:57:37.838Z,23.80
2018-09-15T10:00:06.116Z,24.50
2018-09-15T10:02:34.384Z,24.60
2018-09-15T10:05:02.536Z,24.10
2018-09-15T10:07:30.765Z,23.40
2018-09-15T10:09:58.969Z,22.50
2018-09-15T10:12:27.169Z,21.60
2018-09-15T10:14:55.406Z,20.80
2018-09-15T10:17:23.841Z,20.20
2018-09-15T10:19:52.303Z,19.70
2018-09-15T10:22:25.205Z,19.30
2018-09-15T10:24:53.416Z,18.90
2018-09-15T10:27:21.594Z,18.60
2018-09-15T10:29:49.769Z,18.70
2018-09-15T10:32:17.986Z,18.80
2018-09-15T10:34:46.182Z,19.30
2018-09-15T10:37:14.318Z,19.90
2018-09-15T10:39:42.484Z,19.60
2018-09-15T10:42:10.762Z,20.20
2018-09-15T10:44:39.004Z,20.70
2018-09-15T10:47:07.152Z,20.50
2018-09-15T10:49:35.358Z,20.10
2018-09-15T10:52:03.559Z,19.90
2018-09-15T10:54:31.774Z,19.80
2018-09-15T10:56:59.915Z,20.00
2018-09-15T10:59:28.188Z,20.30
2018-09-15T11:01:56.398Z,20.40
2018-09-15T11:04:24.659Z,20.70
2018-09-15T11:06:52.877Z,20.80
2018-09-15T11:09:21.023Z,21.10
2018-09-15T11:11:49.190Z,21.00
2018-09-15T11:14:17.382Z,20.90
2018-09-15T11:16:45.618Z,21.30
2018-09-15T11:19:13.772Z,20.90
2018-09-15T11:21:41.935Z,20.60
2018-09-15T11:24:10.094Z,20.30
2018-09-15T11:26:38.250Z,19.90
2018-09-15T11:29:06.551Z,19.60
2018-09-15T11:31:34.713Z,19.10
2018-09-15T11:34:02.933Z,18.80
2018-09-15T11:36:31.068Z,18.70
2018-09-15T11:38:59.486Z,18.60
2018-09-15T11:41:27.935Z,18.40
2018-09-15T11:43:56.128Z,18.50
2018-09-15T11:46:24.278Z,18.50
2018-09-15T11:48:52.463Z,18.50
2018-09-15T11:51:20.670Z,18.70
2018-09-15T11:53:48.894Z,18.90
2018-09-15T11:56:17.057Z,19.00
2018-09-15T11:58:45.239Z,19.00
2018-09-15T12:01:13.387Z,19.00
2018-09-15T12:03:41.546Z,19.00
2018-09-15T12:06:09.937Z,19.10
2018-09-15T12:08:38.269Z,19.00
2018-09-15T12:11:06.464Z,19.40
2018-09-15T12:13:34.845Z,19.80
2018-09-15T12:16:03.353Z,20.20
2018-09-15T12:18:31.681Z,20.60
2018-09-15T12:20:59.906Z,20.60
2018-09-15T12:23:28.121Z,20.50
2018-09-15T12:25:57.229Z,20.70
2018-09-15T12:28:25.410Z,20.40
2018-09-15T12:30:53.638Z,20.10
2018-09-15T12:33:21.846Z,20.00
2018-09-15T12:35:49.962Z,19.70
2018-09-15T12:38:18.086Z,19.80
2018-09-15T12:40:46.247Z,20.40
2018-09-15T12:43:14.446Z,20.60
2018-09-15T12:45:42.766Z,20.60
2018-09-15T12:48:11.074Z,20.60
2018-09-15T12:50:39.351Z,20.60
2018-09-15T12:53:07.621Z,20.70
2018-09-15T12:55:35.925Z,20.50
2018-09-15T12:58:04.096Z,20.20
2018-09-15T13:00:32.288Z,20.20
2018-09-15T13:03:00.488Z,20.30
2018-09-15T13:05:28.745Z,20.40
2018-09-15T13:07:57.255Z,20.40
2018-09-15T13:10:25.408Z,20.50
2018-09-15T13:12:53.611Z,20.60
2018-09-15T13:15:21.755Z,20.50
2018-09-15T13:17:50.000Z,20.40
2018-09-15T13:20:18.868Z,20.20
2018-09-15T13:22:47.328Z,20.30
2018-09-15T13:25:15.543Z,20.30
2018-09-15T13:27:43.776Z,20.30
2018-09-15T13:30:12.053Z,20.20
2018-09-15T13:32:40.411Z,20.10
2018-09-15T13:35:08.790Z,20.10
2018-09-15T13:37:37.001Z,20.10
2018-09-15T13:40:05.166Z,20.00
2018-09-15T13:42:33.636Z,20.00
2018-09-15T13:45:02.110Z,20.00
2018-09-15T13:47:30.949Z,19.90
2018-09-15T13:49:59.384Z,19.90
2018-09-15T13:52:28.622Z,19.70
2018-09-15T13:54:56.819Z,19.70
2018-09-15T13:57:25.672Z,19.70
2018-09-15T13:59:53.857Z,19.50
2018-09-15T14:02:22.707Z,19.50
2018-09-15T14:04:51.013Z,19.40
2018-09-15T14:07:19.110Z,19.30
2018-09-15T14:09:47.339Z,19.30
2018-09-15T14:12:15.510Z,19.30
2018-09-15T14:14:44.216Z,19.20
2018-09-15T14:17:12.374Z,19.20
2018-09-15T14:19:40.607Z,19.00
2018-09-15T14:22:08.870Z,18.90
2018-09-15T14:24:37.001Z,18.90
2018-09-15T14:27:05.210Z,18.80
2018-09-15T14:29:33.510Z,18.90
2018-09-15T14:32:01.776Z,19.00
2018-09-15T14:34:31.843Z,19.10
2018-09-15T14:37:00.587Z,19.20
2018-09-15T14:39:28.921Z,19.10
2018-09-15T14:41:57.775Z,19.20
2018-09-15T14:44:25.885Z,19.30
2018-09-15T14:46:54.075Z,19.30
2018-09-15T14:49:22.267Z,19.40
2018-09-15T14:51:50.461Z,19.30
2018-09-15T14:54:18.641Z,19.40
2018-09-15T14:56:53.483Z,19.50
2018-09-15T14:59:21.715Z,19.40
2018-09-15T15:01:50.011Z,19.40
2018-09-15T15:04:18.178Z,19.40
2018-09-15T15:06:46.363Z,19.40
2018-09-15T15:09:14.531Z,19.20
2018-09-15T15:11:42.849Z,19.00
2018-09-15T15:14:11.042Z,18.90
2018-09-15T15:16:39.284Z,18.90
2018-09-15T15:19:07.917Z,18.90
2018-09-15T15:21:36.054Z,19.00
2018-09-15T15:24:04.211Z,19.00
2018-09-15T15:26:33.532Z,19.00
2018-09-15T15:29:01.754Z,19.00
2018-09-15T15:31:29.991Z,19.00
2018-09-15T15:33:58.130Z,18.90
2018-09-15T15:36:26.301Z,18.70
2018-09-15T15:38:54.462Z,18.60
2018-09-15T15:41:24.805Z,18.60
2018-09-15T15:43:53.111Z,18.60
2018-09-15T15:46:21.626Z,18.50
2018-09-15T15:48:50.193Z,18.40
2018-09-15T15:51:18.769Z,18.40
2018-09-15T15:53:47.257Z,18.30
2018-09-15T15:56:16.839Z,18.20
2018-09-15T15:58:45.465Z,18.10
2018-09-15T16:01:13.648Z,18.10
2018-09-15T16:03:41.832Z,18.20
2018-09-15T16:06:09.985Z,18.30
2018-09-15T16:08:38.301Z,18.30
2018-09-15T16:11:06.523Z,18.30
2018-09-15T16:13:35.960Z,18.30
2018-09-15T16:16:04.176Z,17.40
2018-09-15T16:18:32.422Z,18.30
2018-09-15T16:21:00.629Z,18.30
2018-09-15T16:23:28.829Z,18.30
2018-09-15T16:25:58.215Z,18.30
2018-09-15T16:28:26.416Z,18.30
2018-09-15T16:30:54.631Z,18.20
2018-09-15T16:33:22.804Z,18.10
2018-09-15T16:35:51.004Z,18.00
2018-09-15T16:38:19.203Z,17.90
2018-09-15T16:40:47.401Z,17.90
2018-09-15T16:43:15.607Z,17.80
2018-09-15T16:45:43.792Z,17.80
2018-09-15T16:48:12.349Z,17.70
2018-09-15T16:50:40.510Z,17.70
2018-09-15T16:53:08.703Z,17.60
2018-09-15T16:55:37.192Z,17.50
2018-09-15T16:58:12.216Z,17.50
2018-09-15T17:00:40.384Z,17.50
2018-09-15T17:03:08.675Z,17.50
2018-09-15T17:05:36.814Z,17.50
2018-09-15T17:08:05.062Z,17.40
2018-09-15T17:10:33.277Z,17.40
2018-09-15T17:13:03.445Z,17.40
2018-09-15T17:15:31.717Z,17.40
2018-09-15T17:17:59.840Z,17.40
2018-09-15T17:20:28.024Z,17.40
2018-09-15T17:22:56.201Z,17.30
2018-09-15T17:25:24.389Z,17.30
2018-09-15T17:27:52.544Z,17.20
2018-09-15T17:30:20.805Z,17.10
2018-09-15T17:32:49.149Z,17.00
2018-09-15T17:35:17.456Z,16.90
2018-09-15T17:37:45.664Z,16.80
2018-09-15T17:40:13.937Z,16.70
2018-09-15T17:42:42.138Z,16.60
2018-09-15T17:45:10.333Z,16.60
2018-09-15T17:47:38.508Z,16.40
2018-09-15T17:50:06.660Z,16.40
2018-09-15T17:52:34.856Z,16.30
2018-09-15T17:55:03.193Z,16.20
2018-09-15T17:57:31.325Z,16.10
2018-09-15T17:59:59.450Z,16.00
2018-09-15T18:02:27.614Z,15.90
2018-09-15T18:04:55.932Z,15.80
2018-09-15T18:07:24.125Z,15.70
2018-09-15T18:09:52.363Z,15.70
2018-09-15T18:12:20.526Z,15.50
2018-09-15T18:14:55.471Z,15.50
2018-09-15T18:17:23.621Z,15.50
2018-09-15T18:19:51.809Z,15.40
2018-09-15T18:22:20.037Z,15.30
2018-09-15T18:24:48.237Z,15.20
2018-09-15T18:27:16.444Z,15.20
2018-09-15T18:29:44.620Z,15.10
2018-09-15T18:32:12.917Z,15.10
2018-09-15T18:34:41.184Z,15.00
2018-09-15T18:37:09.376Z,15.00
2018-09-15T18:39:37.620Z,14.90
2018-09-15T18:42:05.811Z,14.90
2018-09-15T18:44:33.997Z,14.80
2018-09-15T18:47:02.240Z,14.80
2018-09-15T18:49:31.103Z,14.70
2018-09-15T18:51:59.278Z,14.70
2018-09-15T18:54:27.459Z,14.70
2018-09-15T18:56:55.692Z,14.60
2018-09-15T18:59:23.904Z,14.60
2018-09-15T19:01:52.104Z,14.50
2018-09-15T19:04:20.245Z,14.50
2018-09-15T19:06:48.421Z,14.40
2018-09-15T19:09:16.626Z,14.40
2018-09-15T19:11:44.793Z,14.30
2018-09-15T19:14:12.971Z,14.30
2018-09-15T19:16:41.264Z,14.20
2018-09-15T19:19:09.441Z,14.20
2018-09-15T19:21:37.645Z,14.10
2018-09-15T19:24:05.842Z,14.10
2018-09-15T19:26:34.078Z,14.10
2018-09-15T19:29:02.262Z,14.00
2018-09-15T19:31:30.390Z,14.00
2018-09-15T19:33:58.558Z,13.90
2018-09-15T19:36:26.790Z,13.90
2018-09-15T19:38:55.094Z,13.90
2018-09-15T19:41:23.268Z,13.90
2018-09-15T19:43:51.455Z,13.80
2018-09-15T19:46:19.638Z,13.90
2018-09-15T19:48:47.805Z,13.90
2018-09-15T19:51:15.999Z,13.80
2018-09-15T19:53:44.239Z,13.80
2018-09-15T19:56:12.426Z,13.70
2018-09-15T19:58:40.666Z,13.70
2018-09-15T20:01:09.134Z,13.70
2018-09-15T20:03:37.390Z,13.70
2018-09-15T20:06:05.588Z,13.70
2018-09-15T20:08:33.709Z,13.60
2018-09-15T20:11:01.900Z,13.60
2018-09-15T20:13:30.060Z,13.60
2018-09-15T20:15:57.547Z,13.60
2018-09-15T20:18:24.796Z,13.50
2018-09-15T20:20:52.006Z,13.50
2018-09-15T20:23:20.213Z,13.50
2018-09-15T20:25:48.356Z,13.50
2018-09-15T20:28:16.701Z,13.40
2018-09-15T20:30:45.078Z,13.40
2018-09-15T20:33:13.405Z,13.40
2018-09-15T20:35:41.604Z,13.40
2018-09-15T20:38:09.864Z,13.40
2018-09-15T20:40:38.112Z,13.40
2018-09-15T20:43:06.398Z,13.40
2018-09-15T20:45:34.596Z,13.40
2018-09-15T20:48:02.944Z,13.40
2018-09-15T20:50:31.192Z,13.40
2018-09-15T20:52:59.334Z,13.40
2018-09-15T20:55:27.505Z,13.40
2018-09-15T20:57:55.707Z,13.40
2018-09-15T21:00:23.845Z,13.40
2018-09-15T21:02:51.989Z,13.40
2018-09-15T21:05:20.269Z,13.40
2018-09-15T21:07:48.468Z,13.40
2018-09-15T21:10:16.594Z,13.40
2018-09-15T21:12:44.910Z,13.40
2018-09-15T21:15:13.117Z,13.40
2018-09-15T21:17:41.330Z,13.40
2018-09-15T21:20:09.562Z,13.40
2018-09-15T21:22:37.931Z,13.40
2018-09-15T21:25:06.245Z,13.30
2018-09-15T21:27:34.424Z,13.30
2018-09-15T21:30:02.645Z,13.30
2018-09-15T21:32:31.818Z,13.20
2018-09-15T21:35:00.057Z,13.10
2018-09-15T21:37:28.247Z,13.10
2018-09-15T21:39:56.386Z,13.00
2018-09-15T21:42:24.597Z,13.00
2018-09-15T21:44:52.776Z,13.00
2018-09-15T21:47:21.000Z,12.90
2018-09-15T21:49:49.240Z,12.90
2018-09-15T21:52:17.515Z,12.80
2018-09-15T21:54:45.797Z,12.80
2018-09-15T21:57:14.014Z,12.80
2018-09-15T21:59:42.226Z,12.70
2018-09-15T22:02:10.406Z,12.70
2018-09-15T22:04:38.590Z,12.70
2018-09-15T22:07:06.908Z,12.70
2018-09-15T22:09:35.184Z,12.70
2018-09-15T22:12:03.347Z,12.60
2018-09-15T22:14:31.740Z,12.60
2018-09-15T22:16:59.916Z,12.60
2018-09-15T22:19:28.098Z,12.60
2018-09-15T22:21:56.369Z,12.50
2018-09-15T22:24:24.560Z,12.50
2018-09-15T22:26:52.820Z,12.40
2018-09-15T22:29:21.675Z,12.40
2018-09-15T22:31:50.541Z,12.40
2018-09-15T22:34:18.724Z,12.40
2018-09-15T22:36:46.989Z,12.40
2018-09-15T22:39:15.152Z,12.40
2018-09-15T22:41:43.372Z,12.30
2018-09-15T22:44:11.600Z,12.30
2018-09-15T22:46:39.856Z,12.30
2018-09-15T22:49:08.029Z,12.30
2018-09-15T22:51:36.205Z,12.30
2018-09-15T22:54:04.457Z,12.30
2018-09-15T22:56:32.922Z,12.30
2018-09-15T22:59:01.114Z,12.30
2018-09-15T23:01:29.401Z,12.30
2018-09-15T23:04:03.116Z,12.30
2018-09-15T23:06:31.362Z,12.30
2018-09-15T23:08:59.529Z,12.30
2018-09-15T23:11:27.789Z,12.30
2018-09-15T23:13:55.979Z,12.30
2018-09-15T23:16:24.203Z,12.20
2018-09-15T23:18:52.538Z,12.20
2018-09-15T23:21:20.767Z,12.20
2018-09-15T23:23:48.953Z,12.20
2018-09-15T23:26:17.202Z,12.20
2018-09-15T23:28:45.331Z,12.30
2018-09-15T23:31:13.596Z,12.20
2018-09-15T23:33:41.843Z,12.20
2018-09-15T23:36:10.106Z,12.20
2018-09-15T23:38:38.387Z,12.20
2018-09-15T23:41:06.745Z,12.20
2018-09-15T23:43:34.965Z,12.10
2018-09-15T23:46:03.353Z,12.10
2018-09-15T23:48:31.588Z,12.00
2018-09-15T23:50:59.824Z,12.00
2018-09-15T23:53:28.020Z,12.00
2018-09-15T23:55:56.285Z,12.00
2018-09-15T23:58:24.599Z,12.00
